Wyatt, Missouri
Current Conditions -  °F | °C
As of 4:55 PM on Wednesday 26 Nov 2014 (Local Time) from KCIR Reporting Station
Drizzle Drizzle  
Wind Chill: 38°   Ceiling: 1800
Heat Index: 41°   Visibility: 10mi
Dew Point: 36°   Wind: 5mph
Humidity: 84%   Direction: 240°WSW
Pressure: 30.03"   Gusts: NA
Location:  36.91°N, 89.22°W
Report Text: KCIR 262255Z AUTO 24004KT 10SM -DZ OVC018 05/02 A3003 RMK AO2 P0001 T00480023
Loading
Personal Weather Stations






























Interactive Weather Map New forecast layout! Learn more

10-Day Weather Forecast

Advertisements
Track Severe Weather on mobile